Time;durP1;ratioP1;P1;durP2;ratioP2;P2;SDS_P1;SDS_P2;PMS_P1;PMS_P2;Temp;Humidity;BMP_temperature;BMP_pressure;BME280_temperature;BME280_humidity;BME280_pressure;Samples;Min_cycle;Max_cycle;Signal;HPM_P1;HPM_P2
2023/01/11 00:01:33;;;;;;;7.87;7.37;;;;;;;5.34;90.88;96880.34;4973840;28;20224;-76
2023/01/11 00:03:58;;;;;;;9.33;8.73;;;;;;;5.39;90.64;96869.34;4973654;28;20213;-75
2023/01/11 00:06:24;;;;;;;9.17;8.67;;;;;;;5.37;90.97;96864.34;4973586;28;20192;-76
2023/01/11 00:08:49;;;;;;;9.30;8.70;;;;;;;5.41;91.18;96859.56;4973336;28;20704;-75
2023/01/11 00:11:15;;;;;;;9.50;8.97;;;;;;;5.41;91.46;96860.34;4955799;28;20276;-76
2023/01/11 00:13:43;;;;;;;7.70;7.30;;;;;;;5.44;91.85;96857.41;4973262;28;20188;-76
2023/01/11 00:16:09;;;;;;;6.73;6.30;;;;;;;5.51;92.25;96852.22;4973531;28;20256;-74
2023/01/11 00:18:35;;;;;;;5.57;5.17;;;;;;;5.60;92.04;96858.06;4972348;28;20185;-73
2023/01/11 00:21:04;;;;;;;4.13;3.87;;;;;;;5.60;92.11;96856.25;4973364;28;20177;-74
2023/01/11 00:23:33;;;;;;;5.47;3.23;;;;;;;5.64;92.37;96860.06;4973358;28;20218;-74
2023/01/11 00:26:02;;;;;;;3.30;3.10;;;;;;;5.66;92.61;96863.28;4973215;28;20189;-74
2023/01/11 00:28:27;;;;;;;3.13;2.93;;;;;;;5.69;93.28;96857.69;4973089;28;20189;-75
2023/01/11 00:30:53;;;;;;;3.17;2.97;;;;;;;5.76;93.90;96858.53;4972987;28;20185;-74
2023/01/11 00:33:18;;;;;;;4.43;4.17;;;;;;;5.66;95.65;96852.91;4973035;28;20220;-74
2023/01/11 00:35:43;;;;;;;4.93;4.00;;;;;;;5.66;96.61;96841.69;4973189;28;20711;-74
2023/01/11 00:38:42;;;;;;;5.07;4.67;;;;;;;5.72;96.52;96839.13;4973260;28;20671;-74
2023/01/11 00:40:54;;;;;;;5.13;4.87;;;;;;;5.64;98.23;96831.47;4953695;29;20525;-74
2023/01/11 00:48:47;;;;;;;3.90;3.53;;;;;;;5.73;100.00;96822.53;4973147;28;20279;-74
2023/01/11 00:51:12;;;;;;;5.70;5.40;;;;;;;5.74;100.00;96816.31;4955914;28;20631;-74
2023/01/11 00:53:37;;;;;;;8.63;8.07;;;;;;;5.77;100.00;96822.94;4973357;28;20185;-74
2023/01/11 00:56:03;;;;;;;10.17;9.57;;;;;;;5.84;100.00;96821.97;4972941;28;20648;-74
2023/01/11 00:58:28;;;;;;;10.77;10.20;;;;;;;5.85;100.00;96809.75;4972383;28;20210;-74
2023/01/11 01:00:54;;;;;;;13.53;12.73;;;;;;;5.90;100.00;96810.00;4972807;28;20475;-74
2023/01/11 01:03:19;;;;;;;12.27;11.63;;;;;;;5.89;100.00;96812.78;4972902;28;20549;-74
2023/01/11 01:05:44;;;;;;;8.80;8.27;;;;;;;5.93;100.00;96819.19;4973338;28;20196;-74
2023/01/11 01:08:10;;;;;;;7.30;6.90;;;;;;;5.92;100.00;96809.78;4977087;28;20285;-74
2023/01/11 01:10:35;;;;;;;4.87;4.57;;;;;;;5.90;100.00;96796.19;4976496;28;20258;-74
2023/01/11 01:15:58;;;;;;;3.83;3.53;;;;;;;5.87;100.00;96802.56;4933230;28;20660;-74
2023/01/11 01:18:23;;;;;;;4.20;4.00;;;;;;;5.93;100.00;96808.78;4976838;28;20267;-74
2023/01/11 01:20:49;;;;;;;4.97;4.67;;;;;;;5.95;100.00;96814.63;4976914;28;20239;-74
2023/01/11 01:23:15;;;;;;;4.67;4.37;;;;;;;5.98;100.00;96809.00;4976833;28;20204;-74
2023/01/11 01:25:40;;;;;;;4.37;3.77;;;;;;;5.92;100.00;96804.59;4976184;28;20231;-74
2023/01/11 01:28:05;;;;;;;3.90;3.70;;;;;;;5.99;100.00;96806.22;4976178;28;20220;-74
2023/01/11 01:30:32;;;;;;;6.40;6.00;;;;;;;6.05;100.00;96802.81;4976840;28;20199;-74
2023/01/11 01:32:57;;;;;;;7.37;6.97;;;;;;;6.06;100.00;96809.63;4976538;28;20189;-74
2023/01/11 01:35:23;;;;;;;6.93;6.47;;;;;;;6.05;100.00;96813.22;4975894;28;20235;-74
2023/01/11 01:37:48;;;;;;;7.27;6.57;;;;;;;5.97;100.00;96816.00;4976492;28;20624;-73
2023/01/11 01:40:13;;;;;;;5.40;5.20;;;;;;;6.00;100.00;96812.22;4975957;28;20189;-74
2023/01/11 01:42:39;;;;;;;4.67;4.30;;;;;;;6.06;100.00;96809.63;4975908;28;20333;-73
2023/01/11 01:45:22;;;;;;;3.77;3.63;;;;;;;6.04;100.00;96806.41;4959159;28;20185;-74
2023/01/11 01:47:59;;;;;;;3.93;3.73;;;;;;;5.93;100.00;96812.19;4976068;28;20180;-74
2023/01/11 01:50:35;;;;;;;3.93;3.47;;;;;;;5.93;100.00;96801.78;4959136;28;20371;-74
2023/01/11 01:53:08;;;;;;;3.17;2.97;;;;;;;5.91;100.00;96784.81;4975820;28;20200;-74
2023/01/11 01:55:36;;;;;;;3.80;3.23;;;;;;;5.83;100.00;96793.53;4971894;28;20754;-73
2023/01/11 01:58:06;;;;;;;3.20;2.60;;;;;;;5.85;100.00;96773.34;4924356;29;20537;-74
2023/01/11 02:00:32;;;;;;;3.43;3.23;;;;;;;5.84;100.00;96771.75;4956795;29;20193;-74
2023/01/11 02:02:59;;;;;;;4.57;4.37;;;;;;;5.86;100.00;96767.94;4956736;29;20181;-74
2023/01/11 02:05:25;;;;;;;3.90;3.70;;;;;;;5.84;100.00;96763.94;4956366;29;20212;-75
2023/01/11 02:07:53;;;;;;;4.27;4.07;;;;;;;5.86;100.00;96762.72;4956790;29;20213;-75
2023/01/11 02:10:20;;;;;;;4.00;3.80;;;;;;;5.79;100.00;96766.34;4953902;28;20220;-74
2023/01/11 02:13:08;;;;;;;4.30;4.07;;;;;;;5.77;100.00;96770.91;4946104;29;20272;-73
2023/01/11 02:15:34;;;;;;;4.17;3.87;;;;;;;5.85;100.00;96755.91;4956790;29;20253;-74
2023/01/11 02:18:00;;;;;;;3.93;3.73;;;;;;;5.88;100.00;96751.38;4956097;28;20244;-74
2023/01/11 02:20:40;;;;;;;3.83;3.63;;;;;;;5.82;100.00;96751.13;4956718;29;20659;-75
2023/01/11 02:23:16;;;;;;;4.30;4.10;;;;;;;5.93;100.00;96749.78;4956755;29;20514;-75
2023/01/11 02:25:58;;;;;;;4.10;3.90;;;;;;;5.97;100.00;96745.78;4955927;29;20181;-73
2023/01/11 02:28:42;;;;;;;3.87;3.57;;;;;;;6.07;100.00;96743.59;4956261;29;20177;-73
2023/01/11 02:31:17;;;;;;;3.77;3.40;;;;;;;6.10;100.00;96745.78;4939149;29;20535;-74
2023/01/11 02:34:14;;;;;;;3.97;3.77;;;;;;;6.12;100.00;96738.59;4955796;29;20191;-74
2023/01/11 02:36:57;;;;;;;8.07;3.30;;;;;;;6.08;100.00;96732.16;4956209;29;20325;-75
2023/01/11 02:39:33;;;;;;;3.80;3.70;;;;;;;6.10;100.00;96729.38;4956473;29;20188;-76
2023/01/11 02:45:14;;;;;;;3.47;3.30;;;;;;;6.01;100.00;96727.97;4948049;29;20594;-76
2023/01/11 02:47:48;;;;;;;4.13;3.80;;;;;;;6.07;100.00;96729.78;4956028;29;20185;-76
2023/01/11 02:50:22;;;;;;;4.27;4.07;;;;;;;6.08;100.00;96729.56;4955987;29;20185;-73
2023/01/11 02:52:58;;;;;;;4.30;4.10;;;;;;;6.04;100.00;96725.78;4955762;29;20482;-73
2023/01/11 02:55:30;;;;;;;3.97;3.77;;;;;;;6.11;100.00;96736.19;4955527;28;20397;-73
2023/01/11 02:57:59;;;;;;;3.90;3.70;;;;;;;6.20;100.00;96735.78;4938308;29;20173;-73
2023/01/11 03:00:25;;;;;;;4.00;3.70;;;;;;;6.33;100.00;96740.19;4955522;29;20185;-75
2023/01/11 03:03:12;;;;;;;3.70;3.60;;;;;;;6.26;100.00;96729.78;4955453;29;20181;-73
2023/01/11 03:05:44;;;;;;;4.00;3.80;;;;;;;6.31;100.00;96734.38;4955263;29;20193;-75
2023/01/11 03:08:24;;;;;;;4.53;4.20;;;;;;;6.43;100.00;96729.38;4955179;29;20633;-73
2023/01/11 03:11:06;;;;;;;5.53;5.10;;;;;;;6.43;100.00;96732.78;4954912;28;20193;-73
2023/01/11 03:13:32;;;;;;;4.53;4.30;;;;;;;6.45;100.00;96730.78;4955724;29;20177;-74
2023/01/11 03:16:04;;;;;;;4.43;4.23;;;;;;;6.46;100.00;96724.59;4955304;29;20209;-74
2023/01/11 03:18:35;;;;;;;3.37;3.07;;;;;;;6.52;100.00;96731.56;4955558;29;20245;-74
2023/01/11 03:21:22;;;;;;;3.00;2.90;;;;;;;6.55;100.00;96731.16;4955356;29;20256;-74
2023/01/11 03:23:47;;;;;;;3.87;3.57;;;;;;;6.60;100.00;96740.97;4955709;29;20265;-74
2023/01/11 03:26:40;;;;;;;4.00;3.70;;;;;;;6.64;100.00;96734.34;4953999;29;20276;-73
2023/01/11 03:29:24;;;;;;;3.33;3.13;;;;;;;6.62;100.00;96728.56;4953919;28;20184;-73
2023/01/11 03:32:17;;;;;;;3.50;3.40;;;;;;;6.62;100.00;96733.78;4954532;29;20233;-74
2023/01/11 03:34:57;;;;;;;4.43;4.23;;;;;;;6.58;100.00;96730.75;4954676;29;20209;-73
2023/01/11 03:37:36;;;;;;;3.33;3.23;;;;;;;6.56;100.00;96727.56;4955074;29;20189;-73
2023/01/11 03:40:12;;;;;;;4.30;4.10;;;;;;;6.62;100.00;96726.75;4954350;29;20176;-73
2023/01/11 03:43:09;;;;;;;4.27;4.17;;;;;;;6.71;100.00;96739.56;4955269;29;20181;-73
2023/01/11 03:45:31;;;;;;;4.90;4.70;;;;;;;6.64;100.00;96724.72;4954480;29;20198;-73
2023/01/11 03:48:00;;;;;;;4.47;4.30;;;;;;;6.61;100.00;96719.16;4954743;29;20289;-74
2023/01/11 03:50:29;;;;;;;4.23;3.93;;;;;;;6.58;100.00;96719.53;4954971;29;20317;-74
2023/01/11 03:52:57;;;;;;;3.40;3.20;;;;;;;6.62;100.00;96724.16;4954673;29;20252;-74
2023/01/11 03:55:25;;;;;;;3.43;3.23;;;;;;;6.57;100.00;96718.75;4956902;28;20201;-74
2023/01/11 03:57:53;;;;;;;3.60;3.40;;;;;;;6.62;100.00;96724.16;4974066;28;20177;-74
2023/01/11 04:00:27;;;;;;;3.70;3.60;;;;;;;6.57;100.00;96717.94;5098991;27;20689;-65
2023/01/11 04:02:52;;;;;;;3.43;3.23;;;;;;;6.53;100.00;96709.72;5091320;28;20242;-65
2023/01/11 04:05:18;;;;;;;3.50;3.40;;;;;;;6.54;100.00;96707.94;5088667;28;20180;-64
2023/01/11 04:07:44;;;;;;;3.93;3.77;;;;;;;6.56;100.00;96700.72;5084979;28;20282;-64
2023/01/11 04:10:10;;;;;;;3.70;3.50;;;;;;;6.61;100.00;96693.09;5070487;28;20541;-63
2023/01/11 04:12:35;;;;;;;4.00;3.80;;;;;;;6.60;100.00;96696.69;5069158;28;20209;-64
2023/01/11 04:15:02;;;;;;;4.40;4.17;;;;;;;6.63;100.00;96693.72;5069108;28;20626;-64
2023/01/11 04:17:28;;;;;;;3.53;3.43;;;;;;;6.62;100.00;96692.91;5069085;28;20173;-63
2023/01/11 04:19:53;;;;;;;4.00;3.90;;;;;;;6.57;100.00;96690.13;5069661;28;20300;-63
2023/01/11 04:22:18;;;;;;;3.50;3.30;;;;;;;6.58;100.00;96690.88;5067641;28;20236;-62
2023/01/11 04:24:44;;;;;;;4.47;4.17;;;;;;;6.67;100.00;96682.69;5069112;28;20192;-63
2023/01/11 04:27:09;;;;;;;3.90;3.80;;;;;;;6.60;100.00;96689.69;5068535;28;20181;-63
2023/01/11 04:29:35;;;;;;;3.37;3.27;;;;;;;6.53;100.00;96683.69;5068621;28;20302;-63
2023/01/11 04:32:00;;;;;;;3.87;3.67;;;;;;;6.55;100.00;96683.50;5087086;28;20297;-62
2023/01/11 04:34:25;;;;;;;7.50;7.20;;;;;;;6.50;100.00;96673.69;5088544;28;20181;-63
2023/01/11 04:36:51;;;;;;;7.80;7.50;;;;;;;6.62;100.00;96668.66;5077858;28;20185;-62
2023/01/11 04:39:16;;;;;;;10.70;10.23;;;;;;;6.59;100.00;96669.06;5068353;28;20662;-62
2023/01/11 04:44:26;;;;;;;16.83;15.97;;;;;;;6.68;100.00;96678.28;5088118;28;20184;-62
2023/01/11 04:46:51;;;;;;;6.97;6.60;;;;;;;6.71;100.00;96679.66;5088423;28;20185;-63
2023/01/11 04:49:17;;;;;;;6.10;5.90;;;;;;;6.59;100.00;96687.28;5088445;28;20196;-63
2023/01/11 04:51:42;;;;;;;5.10;4.90;;;;;;;6.62;100.00;96685.09;5071882;28;20220;-62
2023/01/11 04:54:07;;;;;;;5.43;5.13;;;;;;;6.71;100.00;96675.25;5068257;28;20197;-63
2023/01/11 04:56:33;;;;;;;4.00;3.90;;;;;;;6.67;100.00;96671.47;5073783;28;20214;-62
2023/01/11 04:58:58;;;;;;;3.87;3.73;;;;;;;6.72;100.00;96668.22;5095101;28;20250;-63
2023/01/11 05:01:24;;;;;;;3.40;3.20;;;;;;;6.74;100.00;96659.22;5108501;28;20208;-63
2023/01/11 05:03:50;;;;;;;4.07;3.87;;;;;;;6.66;100.00;96651.63;5108587;28;20191;-62
2023/01/11 05:06:15;;;;;;;3.50;3.33;;;;;;;6.56;100.00;96633.03;5108410;28;20237;-62
2023/01/11 05:08:45;;;;;;;4.30;4.10;;;;;;;6.56;100.00;96643.44;5108198;28;20196;-63
2023/01/11 05:11:11;;;;;;;4.30;4.10;;;;;;;6.60;100.00;96649.84;5096743;28;20230;-63
2023/01/11 05:13:43;;;;;;;5.73;5.43;;;;;;;6.58;100.00;96654.44;5094601;28;20255;-63
2023/01/11 05:16:12;;;;;;;6.13;5.87;;;;;;;6.54;100.00;96648.84;5094690;28;20307;-62
2023/01/11 05:18:42;;;;;;;5.97;5.57;;;;;;;6.49;100.00;96643.47;5094570;28;20649;-63
2023/01/11 05:21:10;;;;;;;5.50;5.20;;;;;;;6.53;100.00;96638.63;5094654;28;20668;-63
2023/01/11 05:23:36;;;;;;;4.60;4.50;;;;;;;6.61;100.00;96648.84;5094621;28;20205;-62
2023/01/11 05:26:14;;;;;;;4.97;4.73;;;;;;;6.53;100.00;96641.22;5094409;28;20523;-64
2023/01/11 05:28:39;;;;;;;4.80;4.60;;;;;;;6.54;100.00;96635.03;5094117;28;20188;-63
2023/01/11 05:31:05;;;;;;;4.10;3.80;;;;;;;6.58;100.00;96629.19;5094115;28;20196;-64
2023/01/11 05:33:31;;;;;;;3.70;3.60;;;;;;;6.52;100.00;96624.81;5095229;28;20176;-66
2023/01/11 05:36:05;;;;;;;4.33;4.13;;;;;;;6.62;100.00;96634.81;5094442;28;20173;-63
2023/01/11 05:38:31;;;;;;;4.07;3.97;;;;;;;6.54;100.00;96628.03;5093987;28;20212;-64
2023/01/11 05:40:58;;;;;;;3.93;3.83;;;;;;;6.54;100.00;96629.81;5095860;28;20600;-64
2023/01/11 05:43:24;;;;;;;4.53;4.27;;;;;;;6.55;100.00;96632.22;5094425;28;20554;-64
2023/01/11 05:45:50;;;;;;;4.57;4.37;;;;;;;6.58;100.00;96636.22;5094118;28;20566;-62
2023/01/11 05:48:15;;;;;;;4.77;4.50;;;;;;;6.60;100.00;96642.03;5093903;28;20184;-63
2023/01/11 05:50:41;;;;;;;4.90;4.70;;;;;;;6.57;100.00;96650.25;5093548;28;20196;-62
2023/01/11 05:53:06;;;;;;;4.80;4.60;;;;;;;6.59;100.00;96637.81;5075489;28;20180;-64
2023/01/11 05:55:32;;;;;;;4.77;4.57;;;;;;;6.61;100.00;96636.63;5093711;28;20185;-64
2023/01/11 05:57:58;;;;;;;5.03;4.73;;;;;;;6.55;100.00;96634.81;5092682;28;20192;-62
2023/01/11 06:00:23;;;;;;;5.17;4.50;;;;;;;6.45;100.00;96631.06;5092356;28;20211;-62
2023/01/11 06:02:49;;;;;;;5.87;5.67;;;;;;;6.41;100.00;96640.28;5093332;28;20207;-62
2023/01/11 06:05:15;;;;;;;5.33;5.10;;;;;;;6.38;100.00;96640.69;5093418;28;20656;-62
2023/01/11 06:07:40;;;;;;;5.00;4.80;;;;;;;6.37;100.00;96628.66;5093526;28;20544;-62
2023/01/11 06:10:07;;;;;;;4.97;4.50;;;;;;;6.36;100.00;96621.84;5092802;28;20177;-63
2023/01/11 06:12:32;;;;;;;4.33;4.13;;;;;;;6.28;100.00;96620.28;5093173;28;20205;-64
2023/01/11 06:14:58;;;;;;;4.60;4.40;;;;;;;6.31;100.00;96606.03;5093244;28;20219;-63
2023/01/11 06:17:23;;;;;;;4.57;4.37;;;;;;;6.40;100.00;96602.25;5093312;28;20711;-63
2023/01/11 06:19:48;;;;;;;3.93;3.80;;;;;;;6.40;100.00;96603.03;5093412;28;20245;-63
2023/01/11 06:22:14;;;;;;;4.03;3.83;;;;;;;6.38;100.00;96581.63;5092337;28;20292;-63
2023/01/11 06:24:39;;;;;;;4.40;4.03;;;;;;;6.35;100.00;96573.41;5093239;28;20180;-63
2023/01/11 06:27:04;;;;;;;3.80;3.67;;;;;;;6.39;100.00;96575.41;5093055;28;20275;-63
2023/01/11 06:29:30;;;;;;;3.40;3.30;;;;;;;6.36;100.00;96573.19;5093323;28;20219;-64
2023/01/11 06:31:57;;;;;;;3.57;3.47;;;;;;;6.33;100.00;96572.81;5093007;28;20212;-63
2023/01/11 06:34:22;;;;;;;4.77;4.57;;;;;;;6.39;100.00;96577.22;5093129;28;20283;-63
2023/01/11 06:36:48;;;;;;;4.03;3.83;;;;;;;6.38;100.00;96581.63;5092600;28;20594;-63
2023/01/11 06:39:13;;;;;;;3.97;3.80;;;;;;;6.40;100.00;96589.22;5092963;28;20231;-63
2023/01/11 06:41:39;;;;;;;4.03;3.77;;;;;;;6.44;100.00;96593.81;5092716;28;20316;-65
2023/01/11 06:44:05;;;;;;;3.97;3.83;;;;;;;6.48;100.00;96589.78;5093318;28;20230;-65
2023/01/11 06:46:30;;;;;;;3.90;3.77;;;;;;;6.45;100.00;96585.00;5092713;28;20724;-64
2023/01/11 06:48:56;;;;;;;3.73;3.53;;;;;;;6.49;100.00;96582.78;5092761;28;20191;-64
2023/01/11 06:51:21;;;;;;;3.50;3.30;;;;;;;6.48;100.00;96581.16;5091882;28;20206;-64
2023/01/11 06:53:47;;;;;;;3.10;3.00;;;;;;;6.46;100.00;96584.00;5091711;28;20540;-64
2023/01/11 06:56:14;;;;;;;3.63;3.43;;;;;;;6.52;100.00;96574.56;5092175;28;20676;-65
2023/01/11 06:58:40;;;;;;;3.70;3.50;;;;;;;6.59;100.00;96575.31;5090113;28;20601;-64
2023/01/11 07:01:06;;;;;;;3.53;3.27;;;;;;;6.55;100.00;96574.16;5091555;28;20204;-64
2023/01/11 07:03:31;;;;;;;3.37;3.20;;;;;;;6.56;100.00;96573.16;5092368;28;20238;-65
2023/01/11 07:05:57;;;;;;;3.70;3.50;;;;;;;6.60;100.00;96575.13;5092101;28;20188;-64
2023/01/11 07:08:24;;;;;;;3.70;3.60;;;;;;;6.66;100.00;96560.47;5092008;28;20230;-64
2023/01/11 07:10:50;;;;;;;5.40;5.00;;;;;;;6.73;100.00;96571.66;5091755;28;20196;-64
2023/01/11 07:13:16;;;;;;;5.13;4.93;;;;;;;6.69;100.00;96567.88;5092454;28;20186;-64
2023/01/11 07:15:47;;;;;;;4.63;4.43;;;;;;;6.73;100.00;96574.28;5092662;28;20199;-64
2023/01/11 07:18:13;;;;;;;3.23;3.03;;;;;;;6.77;100.00;96574.66;5091960;28;20190;-70
2023/01/11 07:20:39;;;;;;;2.90;2.80;;;;;;;6.78;100.00;96569.25;5092717;28;20169;-65
2023/01/11 07:23:06;;;;;;;3.17;3.07;;;;;;;6.81;100.00;96568.00;5092465;28;20608;-64
2023/01/11 07:25:32;;;;;;;2.93;2.80;;;;;;;6.89;100.00;96555.56;5074109;28;20184;-65
2023/01/11 07:28:00;;;;;;;3.63;3.53;;;;;;;6.88;100.00;96550.56;5092222;28;20184;-64
2023/01/11 07:30:28;;;;;;;4.33;4.00;;;;;;;7.01;100.00;96553.91;5092691;28;20183;-65
2023/01/11 07:32:53;;;;;;;6.27;5.97;;;;;;;7.03;100.00;96548.44;5092355;28;20219;-65
2023/01/11 07:35:20;;;;;;;5.03;4.83;;;;;;;7.06;100.00;96555.88;5092064;28;20244;-65
2023/01/11 07:37:45;;;;;;;4.37;4.07;;;;;;;7.10;100.00;96554.44;5091822;28;20176;-65
2023/01/11 07:40:11;;;;;;;3.13;3.00;;;;;;;7.13;100.00;96555.84;5090906;28;20211;-65
2023/01/11 07:45:20;;;;;;;7.37;6.77;;;;;;;7.29;100.00;96550.09;5091661;28;20286;-64
2023/01/11 07:47:50;;;;;;;3.60;3.40;;;;;;;7.31;100.00;96551.47;5092093;28;20184;-64
2023/01/11 07:50:15;;;;;;;2.67;2.57;;;;;;;7.36;100.00;96559.47;5056797;28;20251;-65
2023/01/11 07:52:51;;;;;;;4.63;4.43;;;;;;;7.47;100.00;96548.34;5073443;28;20212;-63
2023/01/11 07:55:17;;;;;;;5.67;4.17;;;;;;;9.24;100.00;96546.63;5091568;28;20180;-64
2023/01/11 07:57:42;;;;;;;4.63;4.43;;;;;;;8.81;100.00;96558.03;5091621;28;20244;-60
2023/01/11 08:00:11;;;;;;;4.23;4.03;;;;;;;8.28;100.00;96552.63;5086285;28;20679;-56
2023/01/11 08:02:37;;;;;;;4.07;3.93;;;;;;;8.13;100.00;96560.81;5090915;28;20572;-56
2023/01/11 08:05:03;;;;;;;6.33;6.03;;;;;;;8.02;100.00;96563.34;5088383;28;20180;-59
2023/01/11 08:07:28;;;;;;;4.40;4.20;;;;;;;8.10;100.00;96578.72;5078510;28;20226;-59
2023/01/11 08:09:54;;;;;;;3.80;3.50;;;;;;;8.06;100.00;96565.31;5091552;28;20192;-60
2023/01/11 08:15:03;;;;;;;4.07;3.90;;;;;;;8.14;100.00;96575.44;5091454;28;20183;-59
2023/01/11 08:17:29;;;;;;;13.27;12.20;;;;;;;8.20;100.00;96582.41;5078368;28;20491;-58
2023/01/11 08:19:54;;;;;;;17.73;16.83;;;;;;;8.21;100.00;96578.78;5091253;28;20201;-58
2023/01/11 08:22:20;;;;;;;14.63;13.60;;;;;;;8.21;100.00;96591.06;5091446;28;20230;-58
2023/01/11 08:24:46;;;;;;;22.67;21.53;;;;;;;8.22;100.00;96585.63;5091500;28;20180;-62
2023/01/11 08:27:12;;;;;;;5.60;5.20;;;;;;;8.24;100.00;96583.59;5071018;28;20166;-62
2023/01/11 08:29:38;;;;;;;5.90;5.60;;;;;;;8.19;100.00;96580.03;5090489;28;20764;-58
2023/01/11 08:32:04;;;;;;;5.23;4.97;;;;;;;8.25;100.00;96584.38;5091417;28;20208;-55
2023/01/11 08:34:30;;;;;;;5.90;5.50;;;;;;;8.27;100.00;96569.31;5091357;28;20200;-60
2023/01/11 08:36:56;;;;;;;7.37;7.07;;;;;;;8.40;100.00;96582.25;5090940;28;20180;-60
2023/01/11 08:39:23;;;;;;;8.50;8.00;;;;;;;8.52;100.00;96590.16;5093883;28;20211;-60
2023/01/11 08:41:48;;;;;;;7.63;7.23;;;;;;;8.45;100.00;96594.66;5091243;28;20231;-60
2023/01/11 08:44:15;;;;;;;7.77;7.20;;;;;;;8.46;100.00;96584.00;5090800;28;20177;-60
2023/01/11 08:46:41;;;;;;;6.80;6.43;;;;;;;8.50;100.00;96589.56;5093578;28;20277;-60
2023/01/11 08:49:10;;;;;;;5.23;4.93;;;;;;;8.54;100.00;96586.31;5094493;28;20225;-61
2023/01/11 08:51:38;;;;;;;4.17;3.97;;;;;;;8.58;100.00;96591.91;5094864;28;20197;-58
2023/01/11 08:54:06;;;;;;;4.50;4.30;;;;;;;8.64;100.00;96585.78;5095316;28;20251;-58
2023/01/11 08:56:32;;;;;;;5.30;5.00;;;;;;;8.61;100.00;96583.63;5076590;28;20181;-60
2023/01/11 08:58:57;;;;;;;5.00;4.63;;;;;;;8.57;100.00;96585.88;5092325;28;20258;-58
2023/01/11 09:01:22;;;;;;;3.87;3.73;;;;;;;8.56;100.00;96576.44;5094390;28;20226;-61
2023/01/11 09:03:48;;;;;;;3.70;3.40;;;;;;;8.57;100.00;96578.06;5094648;28;20185;-60
2023/01/11 09:06:13;;;;;;;3.90;3.73;;;;;;;8.53;100.00;96583.91;5094405;28;20176;-60
2023/01/11 09:08:38;;;;;;;4.33;4.10;;;;;;;8.50;100.00;96574.72;5093830;28;20169;-60
2023/01/11 09:11:52;;;;;;;4.30;4.10;;;;;;;8.52;100.00;96583.13;5094570;28;20200;-60
2023/01/11 09:13:49;;;;;;;6.27;5.97;;;;;;;8.50;100.00;96581.75;5094278;28;20184;-53
2023/01/11 09:16:15;;;;;;;4.97;4.67;;;;;;;8.41;100.00;96585.66;5094600;28;20175;-58
2023/01/11 09:18:40;;;;;;;4.03;3.83;;;;;;;8.54;100.00;96577.66;5094061;28;20240;-57
2023/01/11 09:21:05;;;;;;;4.20;4.00;;;;;;;8.43;100.00;96576.59;5093269;28;20569;-60
2023/01/11 09:23:31;;;;;;;3.93;3.73;;;;;;;8.39;100.00;96574.63;5094414;28;20187;-58
2023/01/11 09:25:56;;;;;;;3.57;3.37;;;;;;;8.42;100.00;96585.44;5094355;28;20176;-59
2023/01/11 09:28:22;;;;;;;4.47;4.27;;;;;;;8.34;100.00;96586.53;5094371;28;20335;-58
2023/01/11 09:30:47;;;;;;;3.77;3.47;;;;;;;8.43;100.00;96583.63;5093767;28;20260;-59
2023/01/11 09:33:12;;;;;;;4.57;4.27;;;;;;;8.37;100.00;96587.91;5094240;28;20213;-58
2023/01/11 09:35:41;;;;;;;3.80;3.50;;;;;;;8.42;100.00;96580.22;5094394;28;20176;-59
2023/01/11 09:38:06;;;;;;;3.20;3.10;;;;;;;8.52;100.00;96579.72;5093777;28;20188;-57
2023/01/11 09:40:45;;;;;;;3.63;3.33;;;;;;;8.52;100.00;96579.72;5093845;28;20204;-60
2023/01/11 09:43:16;;;;;;;3.87;3.67;;;;;;;8.54;100.00;96580.28;5092499;28;20173;-60
2023/01/11 09:45:45;;;;;;;3.63;3.43;;;;;;;8.65;100.00;96579.56;5093854;28;20259;-60
2023/01/11 09:48:37;;;;;;;4.33;4.13;;;;;;;8.58;100.00;96579.63;5093740;28;20482;-59
2023/01/11 09:51:03;;;;;;;4.63;4.33;;;;;;;8.65;100.00;96576.94;5084351;28;20252;-59
2023/01/11 09:53:37;;;;;;;3.20;3.10;;;;;;;8.68;100.00;96574.69;5093820;28;20173;-59
2023/01/11 09:56:06;;;;;;;3.87;3.67;;;;;;;8.72;100.00;96573.25;5075106;28;20179;-60
2023/01/11 09:58:50;;;;;;;3.87;3.67;;;;;;;8.74;100.00;96573.81;5069464;28;20229;-60
2023/01/11 10:01:37;;;;;;;3.53;3.33;;;;;;;8.90;100.00;96572.41;5072811;28;20204;-60
2023/01/11 10:04:21;;;;;;;3.90;3.50;;;;;;;8.99;100.00;96578.13;5073001;28;20259;-61
2023/01/11 10:07:18;;;;;;;5.13;4.93;;;;;;;9.06;100.00;96578.84;5073689;28;20183;-60
2023/01/11 10:10:06;;;;;;;4.27;4.07;;;;;;;9.08;100.00;96574.19;5072401;28;20191;-60
2023/01/11 10:12:42;;;;;;;5.40;5.07;;;;;;;9.17;100.00;96570.25;5073235;28;20201;-60
2023/01/11 10:15:22;;;;;;;7.77;7.47;;;;;;;9.07;100.00;96575.22;5073018;28;20634;-62
2023/01/11 10:18:16;;;;;;;6.83;6.30;;;;;;;9.16;100.00;96574.66;5073036;28;20246;-61
2023/01/11 10:20:46;;;;;;;6.87;6.53;;;;;;;9.18;100.00;96571.84;5069279;28;20213;-60
2023/01/11 10:23:32;;;;;;;5.10;4.90;;;;;;;9.30;100.00;96571.88;5073174;28;20180;-59
2023/01/11 10:26:01;;;;;;;6.20;5.90;;;;;;;9.38;100.00;96576.78;5073242;28;20180;-60
2023/01/11 10:28:42;;;;;;;6.40;6.10;;;;;;;9.38;100.00;96574.97;5073037;28;20182;-60
2023/01/11 10:31:46;;;;;;;5.43;5.13;;;;;;;9.38;100.00;96576.78;5072718;28;20197;-61
2023/01/11 10:41:02;;;;;;;5.97;5.77;;;;;;;9.39;100.00;96560.88;5066592;28;20200;-59
2023/01/11 10:43:21;;;;;;;4.73;4.43;;;;;;;9.41;100.00;96561.44;5055770;28;20197;-58
2023/01/11 10:45:52;;;;;;;4.40;4.20;;;;;;;9.43;100.00;96567.22;5072597;28;20181;-60
2023/01/11 10:48:26;;;;;;;3.30;3.20;;;;;;;9.48;100.00;96567.34;5071645;28;20197;-61
2023/01/11 10:51:04;;;;;;;3.50;3.40;;;;;;;9.59;100.00;96563.16;5072248;28;20180;-62
2023/01/11 10:53:38;;;;;;;3.70;3.50;;;;;;;9.56;100.00;96566.25;5072130;28;20181;-61
2023/01/11 10:56:15;;;;;;;3.23;3.03;;;;;;;9.56;100.00;96567.03;5072105;28;20188;-60
2023/01/11 10:59:20;;;;;;;3.50;3.30;;;;;;;9.53;100.00;96569.28;5070808;28;20305;-59
2023/01/11 11:01:58;;;;;;;4.20;4.00;;;;;;;9.64;100.00;96565.13;5073183;28;20220;-61
2023/01/11 11:04:33;;;;;;;4.33;4.13;;;;;;;9.61;100.00;96563.75;5072379;28;20181;-61
2023/01/11 11:07:31;;;;;;;3.20;3.07;;;;;;;9.70;100.00;96562.38;5072355;28;20501;-59
2023/01/11 11:10:15;;;;;;;2.90;2.80;;;;;;;9.69;100.00;96562.63;5038874;28;20207;-59
2023/01/11 11:12:53;;;;;;;3.57;3.37;;;;;;;9.65;100.00;96553.63;5071874;28;20201;-59
2023/01/11 11:15:34;;;;;;;3.67;3.57;;;;;;;9.67;100.00;96554.19;5072244;28;20236;-59
2023/01/11 11:17:59;;;;;;;3.97;3.77;;;;;;;9.66;100.00;96560.44;5072962;28;20174;-60
2023/01/11 11:20:31;;;;;;;3.77;3.67;;;;;;;9.68;100.00;96551.34;5054863;28;20692;-60
2023/01/11 11:22:56;;;;;;;5.77;5.50;;;;;;;9.71;100.00;96547.47;5072899;28;20224;-60
2023/01/11 11:25:48;;;;;;;5.67;5.47;;;;;;;9.75;100.00;96546.78;5072847;28;20264;-59
2023/01/11 11:28:13;;;;;;;7.57;7.27;;;;;;;9.73;100.00;96550.69;5068063;28;20227;-60
2023/01/11 11:30:46;;;;;;;4.83;4.63;;;;;;;9.71;100.00;96545.66;5053238;28;20181;-60
2023/01/11 11:33:36;;;;;;;2.97;2.87;;;;;;;9.79;100.00;96540.09;5071563;28;20189;-60
2023/01/11 11:36:06;;;;;;;2.83;2.73;;;;;;;9.77;100.00;96547.38;5071730;28;20591;-57
2023/01/11 11:38:37;;;;;;;3.20;3.10;;;;;;;9.93;100.00;96543.28;5066523;28;20184;-59
2023/01/11 11:41:02;;;;;;;3.43;3.33;;;;;;;10.09;100.00;96537.34;5072055;28;20205;-58
2023/01/11 11:43:28;;;;;;;7.40;7.03;;;;;;;10.13;100.00;96545.56;5071661;28;20249;-56
2023/01/11 11:45:58;;;;;;;12.03;11.50;;;;;;;10.15;100.00;96530.41;5071757;28;20185;-58
2023/01/11 11:48:25;;;;;;;6.37;6.07;;;;;;;10.17;100.00;96534.41;5071880;28;20246;-60
2023/01/11 11:50:56;;;;;;;5.13;4.80;;;;;;;10.11;100.00;96527.44;5070995;28;20227;-60
2023/01/11 11:53:46;;;;;;;5.47;5.27;;;;;;;10.12;100.00;96526.44;5070868;28;20656;-60
2023/01/11 11:56:25;;;;;;;4.50;4.30;;;;;;;10.11;100.00;96529.25;5058191;28;20263;-60
2023/01/11 11:58:52;;;;;;;4.70;4.50;;;;;;;10.18;100.00;96529.97;5069112;28;20781;-60
2023/01/11 12:01:42;;;;;;;7.63;7.27;;;;;;;10.12;100.00;96529.03;5070961;28;20299;-63
2023/01/11 12:04:17;;;;;;;9.23;8.73;;;;;;;10.10;100.00;96530.28;5052743;28;20213;-61
2023/01/11 12:06:52;;;;;;;4.53;4.33;;;;;;;10.14;100.00;96520.97;5071092;28;20178;-61
2023/01/11 12:09:28;;;;;;;4.23;4.03;;;;;;;10.15;100.00;96512.06;5070769;28;20189;-59
2023/01/11 12:11:55;;;;;;;3.87;3.70;;;;;;;10.11;100.00;96522.22;5071080;28;20645;-56
2023/01/11 12:14:34;;;;;;;3.20;3.10;;;;;;;9.98;100.00;96517.19;5071326;28;20201;-58